createdAt,value
2022-09-28T00:00:51.124Z,11.50
2022-09-28T00:05:02.836Z,11.44
2022-09-28T00:09:05.088Z,11.43
2022-09-28T00:13:08.105Z,11.39
2022-09-28T00:17:09.756Z,11.38
2022-09-28T00:21:14.221Z,11.33
2022-09-28T00:25:16.955Z,11.35
2022-09-28T00:29:29.112Z,11.41
2022-09-28T00:33:31.065Z,11.51
2022-09-28T00:37:33.897Z,11.45
2022-09-28T00:41:36.123Z,11.44
2022-09-28T00:45:38.155Z,11.37
2022-09-28T00:50:02.812Z,11.42
2022-09-28T00:54:07.689Z,11.23
2022-09-28T00:58:13.085Z,11.25
2022-09-28T01:02:15.372Z,11.16
2022-09-28T01:06:28.143Z,11.13
2022-09-28T01:10:31.512Z,11.03
2022-09-28T01:14:33.806Z,10.99
2022-09-28T01:18:47.517Z,10.89
2022-09-28T01:23:13.111Z,10.96
2022-09-28T01:27:32.509Z,10.78
2022-09-28T01:31:37.178Z,10.87
2022-09-28T01:35:51.846Z,10.86
2022-09-28T01:39:57.403Z,10.75
2022-09-28T01:44:02.967Z,10.74
2022-09-28T01:48:07.903Z,10.81
2022-09-28T01:52:14.734Z,10.66
2022-09-28T01:56:36.215Z,10.72
2022-09-28T02:00:42.502Z,10.60
2022-09-28T02:04:55.498Z,10.75
2022-09-28T02:09:05.412Z,10.80
2022-09-28T02:13:32.855Z,10.66
2022-09-28T02:17:35.276Z,10.75
2022-09-28T02:21:55.480Z,10.70
2022-09-28T02:26:08.707Z,10.73
2022-09-28T02:30:11.591Z,10.69
2022-09-28T02:34:13.460Z,10.64
2022-09-28T02:38:15.568Z,10.74
2022-09-28T02:42:43.392Z,10.67
2022-09-28T02:47:11.159Z,10.62
2022-09-28T02:51:27.538Z,10.65
2022-09-28T02:55:35.318Z,10.71
2022-09-28T03:00:08.948Z,10.66
2022-09-28T03:04:29.068Z,10.57
2022-09-28T03:08:38.485Z,10.59
2022-09-28T03:12:46.437Z,10.61
2022-09-28T03:16:50.358Z,10.58
2022-09-28T03:20:52.406Z,10.53
2022-09-28T03:24:54.187Z,10.51
2022-09-28T03:28:56.099Z,10.59
2022-09-28T03:33:00.477Z,10.58
2022-09-28T03:37:04.426Z,10.67
2022-09-28T03:41:07.583Z,10.69
2022-09-28T03:45:11.635Z,10.73
2022-09-28T03:49:13.757Z,10.72
2022-09-28T03:53:15.696Z,10.69
2022-09-28T03:57:17.665Z,10.63
2022-09-28T04:01:20.258Z,10.59
2022-09-28T04:05:22.766Z,10.62
2022-09-28T04:09:24.456Z,10.60
2022-09-28T04:13:27.362Z,10.62
2022-09-28T04:17:29.261Z,10.59
2022-09-28T04:21:31.441Z,10.60
2022-09-28T04:25:39.668Z,10.64
2022-09-28T04:29:41.740Z,10.60
2022-09-28T04:33:43.778Z,10.46
2022-09-28T04:37:45.799Z,10.57
2022-09-28T04:41:48.780Z,10.48
2022-09-28T04:45:51.271Z,10.54
2022-09-28T04:49:53.227Z,10.53
2022-09-28T04:54:01.261Z,10.42
2022-09-28T04:58:04.378Z,10.51
2022-09-28T05:02:07.151Z,10.48
2022-09-28T05:06:30.496Z,10.50
2022-09-28T05:10:40.493Z,10.47
2022-09-28T05:14:42.367Z,10.50
2022-09-28T05:18:44.444Z,10.51
2022-09-28T05:22:46.132Z,10.42
2022-09-28T05:26:48.084Z,10.37
2022-09-28T05:30:50.054Z,10.28
2022-09-28T05:35:06.308Z,10.27
2022-09-28T05:39:15.796Z,10.25
2022-09-28T05:43:18.063Z,10.16
2022-09-28T05:47:19.723Z,10.28
2022-09-28T05:51:21.644Z,10.24
2022-09-28T05:55:23.495Z,10.27
2022-09-28T05:59:25.381Z,10.24
2022-09-28T06:03:27.450Z,10.23
2022-09-28T06:07:29.468Z,10.19
2022-09-28T06:11:31.944Z,10.23
2022-09-28T06:15:39.090Z,10.29
2022-09-28T06:19:40.858Z,10.39
2022-09-28T06:23:57.860Z,10.43
2022-09-28T06:28:07.616Z,10.20
2022-09-28T06:32:09.618Z,10.23
2022-09-28T06:36:13.368Z,10.28
2022-09-28T06:40:15.711Z,10.28
2022-09-28T06:44:17.732Z,10.31
2022-09-28T06:48:58.614Z,10.33
2022-09-28T06:53:19.208Z,10.31
2022-09-28T06:57:27.120Z,10.26
2022-09-28T07:01:28.889Z,10.44
2022-09-28T07:05:48.604Z,10.54
2022-09-28T07:10:13.194Z,10.76
2022-09-28T07:14:46.860Z,11.09
2022-09-28T07:18:50.134Z,10.87
2022-09-28T07:22:59.274Z,10.85
2022-09-28T07:27:12.484Z,10.96
2022-09-28T07:31:29.739Z,11.11
2022-09-28T07:35:52.231Z,11.11
2022-09-28T07:40:14.108Z,11.28
2022-09-28T07:44:17.491Z,11.30
2022-09-28T07:48:21.573Z,11.39
2022-09-28T07:52:34.683Z,11.30
2022-09-28T07:56:50.022Z,11.29
2022-09-28T08:01:07.313Z,11.30
2022-09-28T08:05:10.080Z,11.44
2022-09-28T08:09:11.863Z,11.44
2022-09-28T08:13:34.070Z,11.63
2022-09-28T08:17:50.655Z,11.82
2022-09-28T08:21:55.277Z,11.70
2022-09-28T08:25:57.118Z,11.55
2022-09-28T08:29:59.028Z,11.67
2022-09-28T08:34:29.677Z,11.84
2022-09-28T08:38:43.443Z,11.99
2022-09-28T08:44:00.889Z,12.29
2022-09-28T08:48:52.216Z,11.87
2022-09-28T08:53:47.943Z,11.94
2022-09-28T08:58:05.609Z,12.08
2022-09-28T09:02:33.556Z,12.61
2022-09-28T09:07:04.968Z,13.01
2022-09-28T09:11:43.152Z,13.06
2022-09-28T09:15:55.784Z,13.19
2022-09-28T09:20:28.011Z,13.03
2022-09-28T09:24:51.895Z,13.20
2022-09-28T09:29:14.131Z,13.34
2022-09-28T09:33:38.471Z,13.26
2022-09-28T09:38:28.663Z,12.95
2022-09-28T09:43:27.935Z,12.98
2022-09-28T09:48:11.137Z,13.38
2022-09-28T09:52:26.963Z,13.44
2022-09-28T09:56:45.166Z,13.72
2022-09-28T10:01:19.763Z,13.36
2022-09-28T10:05:54.551Z,14.12
2022-09-28T10:10:00.009Z,14.14
2022-09-28T10:14:25.337Z,14.27
2022-09-28T10:18:35.471Z,14.27
2022-09-28T10:22:58.346Z,14.79
2022-09-28T10:27:06.515Z,14.51
2022-09-28T10:31:37.791Z,14.50
2022-09-28T10:35:43.446Z,14.89
2022-09-28T10:39:53.825Z,14.73
2022-09-28T10:44:08.816Z,14.34
2022-09-28T10:48:45.918Z,13.84
2022-09-28T10:52:47.686Z,13.61
2022-09-28T10:57:36.852Z,13.95
2022-09-28T11:01:43.804Z,13.80
2022-09-28T11:06:14.009Z,13.83
2022-09-28T11:10:25.096Z,13.95
2022-09-28T11:14:42.121Z,14.10
2022-09-28T11:18:49.850Z,14.02
2022-09-28T11:22:53.704Z,13.95
2022-09-28T11:27:00.206Z,13.94
2022-09-28T11:31:08.006Z,13.88
2022-09-28T11:35:50.579Z,14.42
2022-09-28T11:40:26.280Z,14.95
2022-09-28T11:44:41.470Z,15.42
2022-09-28T11:48:55.068Z,15.05
2022-09-28T11:53:35.501Z,14.72
2022-09-28T11:57:42.178Z,14.11
2022-09-28T12:01:48.956Z,14.04
2022-09-28T12:06:16.197Z,13.93
2022-09-28T12:10:29.298Z,13.95
2022-09-28T12:14:35.783Z,13.98
2022-09-28T12:18:46.666Z,13.85
2022-09-28T12:23:01.898Z,13.91
2022-09-28T12:27:06.080Z,14.34
2022-09-28T12:31:15.198Z,14.33
2022-09-28T12:35:23.035Z,13.90
2022-09-28T12:39:57.471Z,13.73
2022-09-28T12:44:27.639Z,13.97
2022-09-28T12:48:29.656Z,14.34
2022-09-28T12:52:45.252Z,14.76
2022-09-28T12:56:58.087Z,14.61
2022-09-28T13:01:28.499Z,14.92
2022-09-28T13:05:34.474Z,14.62
2022-09-28T13:10:01.731Z,14.21
2022-09-28T13:14:32.880Z,14.39
2022-09-28T13:18:53.287Z,14.59
2022-09-28T13:23:08.208Z,14.54
2022-09-28T13:27:15.459Z,14.76
2022-09-28T13:31:33.171Z,14.97
2022-09-28T13:35:43.900Z,15.07
2022-09-28T13:39:45.712Z,14.40
2022-09-28T13:43:50.388Z,14.63
2022-09-28T13:48:02.993Z,14.74
2022-09-28T13:52:34.555Z,14.60
2022-09-28T13:56:57.910Z,14.58
2022-09-28T14:01:11.466Z,14.83
2022-09-28T14:05:23.017Z,15.23
2022-09-28T14:09:45.529Z,15.05
2022-09-28T14:14:05.617Z,14.92
2022-09-28T14:18:25.817Z,14.93
2022-09-28T14:22:55.736Z,14.39
2022-09-28T14:27:15.994Z,14.28
2022-09-28T14:31:30.012Z,14.24
2022-09-28T14:35:43.302Z,13.94
2022-09-28T14:40:05.524Z,13.83
2022-09-28T14:44:13.084Z,13.78
2022-09-28T14:48:20.488Z,13.99
2022-09-28T14:52:39.232Z,14.08
2022-09-28T14:56:51.907Z,13.88
2022-09-28T15:01:07.472Z,13.65
2022-09-28T15:05:19.762Z,13.55
2022-09-28T15:09:28.561Z,13.52
2022-09-28T15:13:30.582Z,13.38
2022-09-28T15:17:39.408Z,13.35
2022-09-28T15:21:43.393Z,13.34
2022-09-28T15:25:52.502Z,13.30
2022-09-28T15:29:58.358Z,13.23
2022-09-28T15:34:18.938Z,13.10
2022-09-28T15:38:21.157Z,12.98
2022-09-28T15:42:23.201Z,12.81
2022-09-28T15:46:28.648Z,12.68
2022-09-28T15:50:31.732Z,12.56
2022-09-28T15:54:44.354Z,12.45
2022-09-28T15:59:08.729Z,12.29
2022-09-28T16:03:10.621Z,12.34
2022-09-28T16:07:12.223Z,12.27
2022-09-28T16:11:26.455Z,12.17
2022-09-28T16:15:36.869Z,12.15
2022-09-28T16:19:39.633Z,12.11
2022-09-28T16:23:41.878Z,12.05
2022-09-28T16:27:44.942Z,11.86
2022-09-28T16:31:52.608Z,11.75
2022-09-28T16:35:54.683Z,11.53
2022-09-28T16:39:56.254Z,11.49
2022-09-28T16:44:01.016Z,11.47
2022-09-28T16:48:04.143Z,11.51
2022-09-28T16:52:12.352Z,11.63
2022-09-28T16:56:14.158Z,11.70
2022-09-28T17:00:22.901Z,11.66
2022-09-28T17:04:25.968Z,11.71
2022-09-28T17:08:28.038Z,11.66
2022-09-28T17:12:29.744Z,11.64
2022-09-28T17:17:02.302Z,11.56
2022-09-28T17:20:56.721Z,11.66
2022-09-28T17:24:58.759Z,11.61
2022-09-28T17:29:01.619Z,11.61
2022-09-28T17:33:03.669Z,11.55
2022-09-28T17:37:05.441Z,11.58
2022-09-28T17:41:10.775Z,11.61
2022-09-28T17:45:12.610Z,11.50
2022-09-28T17:49:15.168Z,11.61
2022-09-28T17:53:16.988Z,11.55
2022-09-28T17:57:18.946Z,11.57
2022-09-28T18:01:20.715Z,11.53
2022-09-28T18:05:24.874Z,11.48
2022-09-28T18:09:26.662Z,11.46
2022-09-28T18:13:28.785Z,11.36
2022-09-28T18:17:30.558Z,11.05
2022-09-28T18:21:32.923Z,11.08
2022-09-28T18:25:34.813Z,11.00
2022-09-28T18:29:36.912Z,10.98
2022-09-28T18:33:39.305Z,10.92
2022-09-28T18:37:41.611Z,10.87
2022-09-28T18:41:43.311Z,11.00
2022-09-28T18:45:45.455Z,11.03
2022-09-28T18:49:47.149Z,10.97
2022-09-28T18:53:49.117Z,10.99
2022-09-28T18:57:51.432Z,10.94
2022-09-28T19:01:53.529Z,10.98
2022-09-28T19:05:56.255Z,10.91
2022-09-28T19:09:58.111Z,10.82
2022-09-28T19:13:59.786Z,10.67
2022-09-28T19:18:01.979Z,10.59
2022-09-28T19:22:04.436Z,10.59
2022-09-28T19:26:13.659Z,10.56
2022-09-28T19:30:15.386Z,10.43
2022-09-28T19:34:17.579Z,10.31
2022-09-28T19:38:19.537Z,10.19
2022-09-28T19:42:21.545Z,10.38
2022-09-28T19:46:23.175Z,10.33
2022-09-28T19:50:25.207Z,10.35
2022-09-28T19:54:33.095Z,10.42
2022-09-28T19:58:37.569Z,10.36
2022-09-28T20:02:39.216Z,10.36
2022-09-28T20:06:41.471Z,10.27
2022-09-28T20:10:54.656Z,10.35
2022-09-28T20:14:56.852Z,10.34
2022-09-28T20:19:03.024Z,10.39
2022-09-28T20:23:05.344Z,10.35
2022-09-28T20:27:07.133Z,10.32
2022-09-28T20:31:23.664Z,10.19
2022-09-28T20:35:50.772Z,10.17
2022-09-28T20:39:53.346Z,10.05
2022-09-28T20:43:59.584Z,9.89
2022-09-28T20:48:06.390Z,9.75
2022-09-28T20:52:08.601Z,9.59
2022-09-28T20:56:31.594Z,9.38
2022-09-28T21:00:33.322Z,9.25
2022-09-28T21:04:35.736Z,9.02
2022-09-28T21:08:37.340Z,9.01
2022-09-28T21:12:39.878Z,8.72
2022-09-28T21:16:41.706Z,8.75
2022-09-28T21:20:47.923Z,8.48
2022-09-28T21:24:49.504Z,8.37
2022-09-28T21:28:56.132Z,8.24
2022-09-28T21:32:58.122Z,8.13
2022-09-28T21:36:59.932Z,8.09
2022-09-28T21:41:01.699Z,7.95
2022-09-28T21:45:04.243Z,7.97
2022-09-28T21:49:07.984Z,7.91
2022-09-28T21:53:10.003Z,7.88
2022-09-28T21:57:12.002Z,7.83
2022-09-28T22:01:23.472Z,7.75
2022-09-28T22:05:25.184Z,7.70
2022-09-28T22:09:27.243Z,7.70
2022-09-28T22:13:29.695Z,7.73
2022-09-28T22:17:32.089Z,7.74
2022-09-28T22:21:34.907Z,7.69
2022-09-28T22:25:42.974Z,7.60
2022-09-28T22:29:45.018Z,7.40
2022-09-28T22:33:47.052Z,7.37
2022-09-28T22:37:48.950Z,7.32
2022-09-28T22:41:52.637Z,7.39
2022-09-28T22:46:12.102Z,7.52
2022-09-28T22:50:14.137Z,7.68
2022-09-28T22:54:16.370Z,7.91
2022-09-28T22:58:18.408Z,8.18
2022-09-28T23:02:19.967Z,8.40
2022-09-28T23:06:24.909Z,8.54
2022-09-28T23:10:26.670Z,8.67
2022-09-28T23:14:28.485Z,8.71
2022-09-28T23:18:32.747Z,8.74
2022-09-28T23:22:34.693Z,8.75
2022-09-28T23:26:36.972Z,8.82
2022-09-28T23:30:39.072Z,8.90
2022-09-28T23:34:40.720Z,8.77
2022-09-28T23:38:43.151Z,8.90
2022-09-28T23:42:44.889Z,8.83
2022-09-28T23:46:46.768Z,8.79
2022-09-28T23:50:48.504Z,8.69
2022-09-28T23:54:50.580Z,8.77
2022-09-28T23:58:52.180Z,8.74
